createdAt,value
2023-04-10T00:00:13.340Z,13.77
2023-04-10T00:01:14.856Z,14.95
2023-04-10T00:02:16.411Z,15.35
2023-04-10T00:03:18.346Z,13.95
2023-04-10T00:04:20.066Z,14.52
2023-04-10T00:05:21.577Z,14.93
2023-04-10T00:06:23.044Z,14.43
2023-04-10T00:07:24.527Z,14.10
2023-04-10T00:08:26.292Z,13.85
2023-04-10T00:09:29.020Z,13.52
2023-04-10T00:10:31.757Z,16.48
2023-04-10T00:11:33.253Z,15.68
2023-04-10T00:12:36.946Z,15.15
2023-04-10T00:13:38.419Z,14.07
2023-04-10T00:14:39.930Z,15.20
2023-04-10T00:15:41.637Z,13.65
2023-04-10T00:16:43.069Z,14.85
2023-04-10T00:17:44.619Z,15.85
2023-04-10T00:18:47.179Z,16.35
2023-04-10T00:19:48.598Z,15.07
2023-04-10T00:20:50.210Z,15.90
2023-04-10T00:21:51.715Z,14.57
2023-04-10T00:22:55.563Z,15.10
2023-04-10T00:23:56.988Z,15.00
2023-04-10T00:24:58.403Z,15.57
2023-04-10T00:26:00.148Z,15.65
2023-04-10T00:27:01.699Z,14.50
2023-04-10T00:28:06.210Z,15.48
2023-04-10T00:29:08.286Z,15.52
2023-04-10T00:30:09.967Z,13.85
2023-04-10T00:31:11.597Z,13.40
2023-04-10T00:32:13.268Z,15.05
2023-04-10T00:33:14.880Z,14.77
2023-04-10T00:34:16.661Z,15.93
2023-04-10T00:35:20.896Z,15.52
2023-04-10T00:36:22.853Z,15.77
2023-04-10T00:37:24.828Z,16.13
2023-04-10T00:38:26.388Z,14.73
2023-04-10T00:39:27.811Z,16.80
2023-04-10T00:40:30.438Z,14.40
2023-04-10T00:41:31.856Z,16.50
2023-04-10T00:42:33.383Z,15.27
2023-04-10T00:43:34.850Z,14.75
2023-04-10T00:44:37.744Z,16.13
2023-04-10T00:45:39.701Z,15.13
2023-04-10T00:46:41.545Z,16.27
2023-04-10T00:47:43.222Z,14.73
2023-04-10T00:48:44.830Z,14.75
2023-04-10T00:49:46.567Z,15.73
2023-04-10T00:50:48.120Z,16.33
2023-04-10T00:51:49.728Z,15.52
2023-04-10T00:52:51.627Z,12.63
2023-04-10T00:53:55.145Z,15.48
2023-04-10T00:54:57.115Z,15.02
2023-04-10T00:56:00.324Z,15.45
2023-04-10T00:57:03.213Z,14.18
2023-04-10T00:58:04.711Z,14.50
2023-04-10T00:59:07.301Z,14.80
2023-04-10T01:00:09.946Z,14.38
2023-04-10T01:01:11.514Z,13.60
2023-04-10T01:02:13.393Z,12.88
2023-04-10T01:03:17.999Z,14.88
2023-04-10T01:04:19.872Z,14.55
2023-04-10T01:05:22.282Z,14.40
2023-04-10T01:06:38.824Z,14.93
2023-04-10T01:08:18.556Z,15.27
2023-04-10T01:09:39.671Z,15.93
2023-04-10T01:10:51.868Z,17.05
2023-04-10T01:12:09.078Z,14.50
2023-04-10T01:13:24.420Z,16.02
2023-04-10T01:15:53.186Z,14.68
2023-04-10T01:17:04.402Z,14.60
2023-04-10T01:18:31.687Z,14.93
2023-04-10T01:19:47.368Z,15.10
2023-04-10T01:20:48.917Z,13.68
2023-04-10T01:21:53.538Z,17.30
2023-04-10T01:23:42.625Z,13.98
2023-04-10T01:25:15.060Z,15.07
2023-04-10T01:26:19.740Z,16.63
2023-04-10T01:27:40.202Z,19.55
2023-04-10T01:29:00.529Z,15.60
2023-04-10T01:30:04.311Z,15.60
2023-04-10T01:31:08.616Z,15.35
2023-04-10T01:32:23.111Z,15.68
2023-04-10T01:33:33.738Z,16.83
2023-04-10T01:34:47.794Z,14.15
2023-04-10T01:35:52.475Z,15.27
2023-04-10T01:36:58.556Z,16.15
2023-04-10T01:38:02.246Z,16.23
2023-04-10T01:39:05.584Z,16.25
2023-04-10T01:40:10.452Z,14.77
2023-04-10T01:41:13.653Z,17.05
2023-04-10T01:42:17.834Z,15.50
2023-04-10T01:43:21.901Z,14.55
2023-04-10T01:44:31.494Z,16.10
2023-04-10T01:45:33.708Z,15.23
2023-04-10T01:46:37.991Z,15.60
2023-04-10T01:47:39.909Z,14.13
2023-04-10T01:48:41.919Z,15.82
2023-04-10T01:49:47.100Z,14.63
2023-04-10T01:50:50.343Z,15.98
2023-04-10T01:51:54.257Z,13.98
2023-04-10T01:52:57.386Z,16.45
2023-04-10T01:54:01.214Z,15.50
2023-04-10T01:55:04.510Z,17.23
2023-04-10T01:56:08.343Z,15.27
2023-04-10T01:57:12.625Z,16.73
2023-04-10T01:58:14.248Z,16.25
2023-04-10T01:59:16.204Z,14.55
2023-04-10T02:00:17.874Z,16.10
2023-04-10T02:01:29.005Z,15.52
2023-04-10T02:02:32.913Z,15.60
2023-04-10T02:04:36.228Z,16.45
2023-04-10T02:05:54.933Z,16.17
2023-04-10T02:07:09.330Z,16.75
2023-04-10T02:08:28.725Z,15.52
2023-04-10T02:10:02.185Z,15.70
2023-04-10T02:11:17.854Z,15.27
2023-04-10T02:12:26.703Z,14.32
2023-04-10T02:13:29.891Z,16.58
2023-04-10T02:14:34.016Z,15.38
2023-04-10T02:15:37.425Z,16.85
2023-04-10T02:16:39.408Z,16.17
2023-04-10T02:17:41.936Z,15.75
2023-04-10T02:18:43.749Z,17.30
2023-04-10T02:19:48.670Z,16.75
2023-04-10T02:20:51.081Z,16.52
2023-04-10T02:21:54.103Z,16.92
2023-04-10T02:23:58.873Z,14.27
2023-04-10T02:26:11.130Z,16.50
2023-04-10T02:27:12.636Z,15.95
2023-04-10T02:28:14.084Z,16.55
2023-04-10T02:29:15.837Z,15.05
2023-04-10T02:30:17.406Z,15.82
2023-04-10T02:31:19.096Z,15.07
2023-04-10T02:32:20.761Z,14.38
2023-04-10T02:33:22.204Z,15.38
2023-04-10T02:34:23.743Z,16.38
2023-04-10T02:35:26.375Z,15.32
2023-04-10T02:36:28.914Z,17.15
2023-04-10T02:37:31.375Z,15.75
2023-04-10T02:38:32.825Z,16.23
2023-04-10T02:39:35.034Z,16.35
2023-04-10T02:40:37.243Z,16.55
2023-04-10T02:41:38.717Z,18.17
2023-04-10T02:42:40.483Z,15.82
2023-04-10T02:43:42.387Z,17.40
2023-04-10T02:44:44.853Z,17.13
2023-04-10T02:45:46.555Z,16.00
2023-04-10T02:46:48.183Z,16.23
2023-04-10T02:47:49.704Z,15.95
2023-04-10T02:48:52.788Z,14.98
2023-04-10T02:51:57.815Z,16.42
2023-04-10T02:52:59.277Z,16.92
2023-04-10T02:54:00.827Z,15.13
2023-04-10T02:55:02.264Z,17.00
2023-04-10T02:56:06.548Z,16.95
2023-04-10T02:57:07.988Z,17.20
2023-04-10T02:58:10.179Z,15.95
2023-04-10T02:59:13.322Z,15.82
2023-04-10T03:00:15.683Z,16.67
2023-04-10T03:01:17.260Z,16.38
2023-04-10T03:02:18.888Z,16.73
2023-04-10T03:03:20.983Z,16.30
2023-04-10T03:04:23.377Z,15.93
2023-04-10T03:05:24.861Z,17.38
2023-04-10T03:06:27.356Z,18.55
2023-04-10T03:07:28.790Z,15.93
2023-04-10T03:08:30.706Z,13.77
2023-04-10T03:09:32.156Z,16.45
2023-04-10T03:10:33.712Z,18.00
2023-04-10T03:11:35.788Z,15.68
2023-04-10T03:12:37.578Z,17.25
2023-04-10T03:13:39.486Z,16.13
2023-04-10T03:14:41.474Z,16.27
2023-04-10T03:15:43.589Z,16.55
2023-04-10T03:16:45.366Z,18.13
2023-04-10T03:17:47.429Z,17.00
2023-04-10T03:18:49.485Z,16.13
2023-04-10T03:19:50.982Z,17.08
2023-04-10T03:20:52.510Z,15.40
2023-04-10T03:21:54.429Z,16.42
2023-04-10T03:22:55.996Z,17.83
2023-04-10T03:23:57.592Z,16.00
2023-04-10T03:24:59.157Z,15.85
2023-04-10T03:26:00.736Z,17.02
2023-04-10T03:27:02.328Z,18.05
2023-04-10T03:28:03.930Z,17.33
2023-04-10T03:29:05.416Z,15.38
2023-04-10T03:30:07.822Z,18.08
2023-04-10T03:31:10.522Z,14.95
2023-04-10T03:32:11.949Z,15.80
2023-04-10T03:33:13.877Z,15.82
2023-04-10T03:34:15.348Z,16.83
2023-04-10T03:35:16.830Z,17.48
2023-04-10T03:36:18.672Z,15.40
2023-04-10T03:37:20.297Z,15.25
2023-04-10T03:38:22.216Z,16.70
2023-04-10T03:39:24.675Z,17.27
2023-04-10T03:40:26.407Z,16.38
2023-04-10T03:41:27.894Z,17.58
2023-04-10T03:42:29.489Z,15.98
2023-04-10T03:43:31.822Z,16.92
2023-04-10T03:44:34.255Z,15.00
2023-04-10T03:45:35.690Z,17.55
2023-04-10T03:46:37.152Z,16.42
2023-04-10T03:47:39.132Z,14.63
2023-04-10T03:48:41.345Z,16.48
2023-04-10T03:49:42.783Z,16.13
2023-04-10T03:50:44.991Z,16.20
2023-04-10T03:51:46.463Z,16.38
2023-04-10T03:52:49.817Z,16.02
2023-04-10T03:53:51.685Z,15.65
2023-04-10T03:54:56.345Z,15.98
2023-04-10T03:55:57.765Z,16.30
2023-04-10T03:56:59.193Z,16.85
2023-04-10T03:58:00.764Z,17.30
2023-04-10T03:59:02.270Z,16.08
2023-04-10T04:00:05.720Z,15.60
2023-04-10T04:01:07.732Z,16.35
2023-04-10T04:02:09.306Z,15.45
2023-04-10T04:03:10.973Z,15.18
2023-04-10T04:04:12.670Z,17.02
2023-04-10T04:05:14.216Z,16.25
2023-04-10T04:06:16.213Z,16.58
2023-04-10T04:07:17.718Z,16.42
2023-04-10T04:08:19.294Z,15.93
2023-04-10T04:09:20.775Z,16.17
2023-04-10T04:10:22.289Z,15.18
2023-04-10T04:11:23.746Z,14.88
2023-04-10T04:12:25.254Z,15.52
2023-04-10T04:13:27.254Z,15.57
2023-04-10T04:14:28.698Z,15.82
2023-04-10T04:15:30.356Z,15.57
2023-04-10T04:16:32.321Z,15.68
2023-04-10T04:17:34.366Z,15.45
2023-04-10T04:18:36.573Z,16.13
2023-04-10T04:19:38.497Z,16.75
2023-04-10T04:20:39.965Z,16.65
2023-04-10T04:21:41.432Z,15.50
2023-04-10T04:22:42.922Z,15.48
2023-04-10T04:23:44.388Z,17.35
2023-04-10T04:24:45.823Z,14.80
2023-04-10T04:25:47.266Z,14.80
2023-04-10T04:26:48.803Z,15.98
2023-04-10T04:27:50.786Z,15.18
2023-04-10T04:28:52.916Z,16.77
2023-04-10T04:29:54.365Z,15.73
2023-04-10T04:30:55.904Z,14.75
2023-04-10T04:31:57.446Z,15.90
2023-04-10T04:32:59.489Z,16.10
2023-04-10T04:34:01.406Z,20.08
2023-04-10T04:35:03.203Z,15.82
2023-04-10T04:36:05.466Z,17.45
2023-04-10T04:37:06.918Z,16.10
2023-04-10T04:38:08.388Z,16.63
2023-04-10T04:39:09.827Z,16.25
2023-04-10T04:40:11.637Z,16.00
2023-04-10T04:41:13.069Z,16.00
2023-04-10T04:42:14.553Z,16.45
2023-04-10T04:43:16.115Z,15.88
2023-04-10T04:44:20.167Z,16.52
2023-04-10T04:45:21.926Z,17.38
2023-04-10T04:46:23.526Z,17.23
2023-04-10T04:47:25.701Z,16.52
2023-04-10T04:48:27.617Z,17.17
2023-04-10T04:49:29.594Z,18.23
2023-04-10T04:50:31.159Z,15.77
2023-04-10T04:51:32.611Z,17.63
2023-04-10T04:52:35.827Z,16.90
2023-04-10T04:53:37.316Z,17.77
2023-04-10T04:54:38.779Z,16.27
2023-04-10T04:55:40.931Z,17.15
2023-04-10T04:56:42.494Z,15.93
2023-04-10T04:57:44.418Z,16.90
2023-04-10T04:58:45.852Z,17.30
2023-04-10T04:59:47.262Z,16.35
2023-04-10T05:00:48.737Z,16.98
2023-04-10T05:01:50.461Z,19.35
2023-04-10T05:02:52.568Z,17.08
2023-04-10T05:03:54.350Z,17.73
2023-04-10T05:04:56.033Z,17.80
2023-04-10T05:05:58.212Z,18.27
2023-04-10T05:06:59.692Z,16.17
2023-04-10T05:08:01.181Z,19.25
2023-04-10T05:09:03.229Z,16.35
2023-04-10T05:10:05.232Z,16.75
2023-04-10T05:11:06.970Z,16.88
2023-04-10T05:12:08.410Z,16.92
2023-04-10T05:13:09.842Z,17.13
2023-04-10T05:14:11.264Z,15.90
2023-04-10T05:15:12.704Z,17.50
2023-04-10T05:16:14.252Z,15.90
2023-04-10T05:17:16.882Z,19.58
2023-04-10T05:18:21.815Z,16.27
2023-04-10T05:19:23.284Z,17.50
2023-04-10T05:20:24.806Z,17.23
2023-04-10T05:21:27.431Z,17.80
2023-04-10T05:22:28.979Z,17.77
2023-04-10T05:23:30.466Z,17.08
2023-04-10T05:24:31.991Z,17.85
2023-04-10T05:25:33.441Z,18.02
2023-04-10T05:26:35.434Z,19.40
2023-04-10T05:27:37.450Z,19.10
2023-04-10T05:28:38.824Z,18.38
2023-04-10T05:29:40.275Z,18.23
2023-04-10T05:30:42.192Z,19.77
2023-04-10T05:31:43.638Z,17.88
2023-04-10T05:32:46.204Z,17.33
2023-04-10T05:33:47.679Z,19.15
2023-04-10T05:34:49.127Z,17.92
2023-04-10T05:35:50.738Z,17.77
2023-04-10T05:36:52.143Z,17.58
2023-04-10T05:37:53.609Z,17.67
2023-04-10T05:38:55.167Z,16.77
2023-04-10T05:39:56.649Z,17.63
2023-04-10T05:40:58.053Z,16.90
2023-04-10T05:41:59.478Z,15.52
2023-04-10T05:43:00.939Z,17.17
2023-04-10T05:44:02.377Z,17.20
2023-04-10T05:45:04.089Z,16.67
2023-04-10T05:46:05.980Z,16.05
2023-04-10T05:47:07.408Z,17.10
2023-04-10T05:48:08.822Z,17.48
2023-04-10T05:49:10.217Z,18.17
2023-04-10T05:50:11.728Z,16.88
2023-04-10T05:51:13.146Z,15.82
2023-04-10T05:52:14.649Z,15.82
2023-04-10T05:53:18.957Z,16.73
2023-04-10T05:54:20.812Z,16.48
2023-04-10T05:55:22.222Z,17.15
2023-04-10T05:56:23.672Z,16.08
2023-04-10T05:57:25.536Z,17.63
2023-04-10T05:58:27.184Z,16.35
2023-04-10T05:59:29.112Z,16.42
2023-04-10T06:00:30.740Z,16.20
2023-04-10T06:01:32.148Z,16.05
2023-04-10T06:02:33.793Z,16.08
2023-04-10T06:03:36.131Z,17.13
2023-04-10T06:04:37.906Z,17.40
2023-04-10T06:05:41.324Z,15.35
2023-04-10T06:06:42.914Z,17.23
2023-04-10T06:07:44.390Z,17.75
2023-04-10T06:08:45.860Z,17.45
2023-04-10T06:09:47.272Z,16.88
2023-04-10T06:10:48.947Z,18.02
2023-04-10T06:11:50.520Z,18.05
2023-04-10T06:12:52.009Z,18.05
2023-04-10T06:13:53.433Z,17.42
2023-04-10T06:14:54.882Z,16.83
2023-04-10T06:15:56.427Z,18.38
2023-04-10T06:16:57.938Z,17.85
2023-04-10T06:17:59.406Z,19.13
2023-04-10T06:19:01.022Z,18.27
2023-04-10T06:20:06.165Z,18.50
2023-04-10T06:21:08.211Z,18.20
2023-04-10T06:22:09.635Z,18.65
2023-04-10T06:23:12.381Z,18.05
2023-04-10T06:24:14.336Z,18.35
2023-04-10T06:25:16.130Z,19.02
2023-04-10T06:26:18.222Z,17.50
2023-04-10T06:27:20.196Z,17.73
2023-04-10T06:28:21.669Z,18.15
2023-04-10T06:29:26.018Z,18.20
2023-04-10T06:30:31.151Z,19.65
2023-04-10T06:31:34.757Z,17.85
2023-04-10T06:32:36.257Z,19.85
2023-04-10T06:33:37.766Z,19.02
2023-04-10T06:34:39.574Z,17.17
2023-04-10T06:35:41.605Z,18.73
2023-04-10T06:36:43.691Z,18.05
2023-04-10T06:37:47.392Z,16.52
2023-04-10T06:38:55.058Z,17.60
2023-04-10T06:41:31.556Z,16.77
2023-04-10T06:42:33.523Z,16.10
2023-04-10T06:43:38.964Z,16.83
2023-04-10T06:44:44.235Z,16.70
2023-04-10T06:45:46.047Z,16.95
2023-04-10T06:46:47.530Z,16.10
2023-04-10T06:47:49.134Z,17.75
2023-04-10T06:48:50.762Z,17.10
2023-04-10T06:49:52.490Z,16.70
2023-04-10T06:50:54.204Z,16.75
2023-04-10T06:51:55.908Z,18.25
2023-04-10T06:52:59.994Z,16.23
2023-04-10T06:54:01.649Z,16.73
2023-04-10T06:55:03.184Z,17.05
2023-04-10T06:56:05.370Z,17.42
2023-04-10T06:57:07.097Z,17.05
2023-04-10T06:58:13.669Z,16.38
2023-04-10T06:59:17.413Z,17.98
2023-04-10T07:00:19.394Z,16.35
2023-04-10T07:01:20.956Z,17.90
2023-04-10T07:02:23.023Z,16.90
2023-04-10T07:03:25.092Z,16.35
2023-04-10T07:04:26.621Z,15.60
2023-04-10T07:05:29.279Z,17.65
2023-04-10T07:06:31.423Z,16.10
2023-04-10T07:07:33.884Z,17.30
2023-04-10T07:08:35.612Z,15.98
2023-04-10T07:09:37.068Z,16.17
2023-04-10T07:10:38.506Z,15.57
2023-04-10T07:11:40.005Z,15.65
2023-04-10T07:12:41.660Z,16.70
2023-04-10T07:13:43.092Z,15.55
2023-04-10T07:14:44.584Z,15.43
2023-04-10T07:15:46.077Z,17.60
2023-04-10T07:16:51.884Z,15.90
2023-04-10T07:17:54.975Z,15.13
2023-04-10T07:19:59.385Z,14.95
2023-04-10T07:21:01.124Z,14.98
2023-04-10T07:22:02.578Z,15.23
2023-04-10T07:23:07.351Z,13.73
2023-04-10T07:24:08.928Z,15.55
2023-04-10T07:25:10.674Z,15.77
2023-04-10T07:26:12.505Z,14.07
2023-04-10T07:27:13.935Z,16.10
2023-04-10T07:28:15.373Z,15.70
2023-04-10T07:29:16.868Z,14.27
2023-04-10T07:30:18.963Z,15.85
2023-04-10T07:31:20.559Z,14.20
2023-04-10T07:32:22.725Z,13.63
2023-04-10T07:33:24.418Z,13.23
2023-04-10T07:34:26.266Z,13.32
2023-04-10T07:35:27.725Z,12.35
2023-04-10T07:36:29.524Z,14.02
2023-04-10T07:37:31.490Z,13.65
2023-04-10T07:38:33.169Z,15.32
2023-04-10T07:39:34.579Z,13.50
2023-04-10T07:40:35.994Z,13.40
2023-04-10T07:41:37.966Z,12.27
2023-04-10T07:42:39.443Z,14.15
2023-04-10T07:43:41.566Z,12.70
2023-04-10T07:44:43.017Z,13.70
2023-04-10T07:45:44.488Z,13.05
2023-04-10T07:46:45.981Z,13.27
2023-04-10T07:47:47.779Z,13.85
2023-04-10T07:48:49.805Z,13.13
2023-04-10T07:49:51.340Z,12.80
2023-04-10T07:50:53.115Z,12.38
2023-04-10T07:51:54.682Z,12.70
2023-04-10T07:52:56.910Z,12.90
2023-04-10T07:53:58.431Z,13.20
2023-04-10T07:55:03.173Z,13.43
2023-04-10T07:56:05.134Z,13.68
2023-04-10T07:57:06.626Z,12.98
2023-04-10T07:58:08.117Z,13.10
2023-04-10T07:59:10.128Z,11.93
2023-04-10T08:00:12.288Z,13.23
2023-04-10T08:01:14.835Z,14.15
2023-04-10T08:02:16.349Z,12.13
2023-04-10T08:03:18.142Z,13.27
2023-04-10T08:04:20.590Z,11.48
2023-04-10T08:05:22.272Z,12.70
2023-04-10T08:06:23.849Z,12.25
2023-04-10T08:07:25.366Z,11.82
2023-04-10T08:08:26.852Z,13.82
2023-04-10T08:09:28.883Z,12.32
2023-04-10T08:10:30.400Z,12.82
2023-04-10T08:11:35.288Z,11.93
2023-04-10T08:12:38.127Z,12.45
2023-04-10T08:13:39.552Z,11.25
2023-04-10T08:14:41.269Z,11.68
2023-04-10T08:15:43.166Z,12.05
2023-04-10T08:16:44.708Z,13.60
2023-04-10T08:17:46.184Z,12.65
2023-04-10T08:18:47.656Z,12.73
2023-04-10T08:19:49.121Z,11.70
2023-04-10T08:20:50.564Z,11.65
2023-04-10T08:21:52.014Z,12.73
2023-04-10T08:22:54.237Z,12.38
2023-04-10T08:24:01.222Z,12.68
2023-04-10T08:25:03.290Z,11.30
2023-04-10T08:26:05.531Z,13.15
2023-04-10T08:27:06.960Z,11.95
2023-04-10T08:28:08.378Z,13.27
2023-04-10T08:29:09.810Z,11.77
2023-04-10T08:30:11.657Z,12.07
2023-04-10T08:31:14.169Z,13.00
2023-04-10T08:32:15.732Z,12.27
2023-04-10T08:33:17.271Z,11.63
2023-04-10T08:34:18.691Z,11.40
2023-04-10T08:35:20.308Z,12.57
2023-04-10T08:36:21.958Z,12.98
2023-04-10T08:37:23.457Z,11.82
2023-04-10T08:38:27.536Z,13.00
2023-04-10T08:39:28.965Z,13.15
2023-04-10T08:40:30.493Z,11.20
2023-04-10T08:41:32.176Z,11.70
2023-04-10T08:42:34.716Z,11.70
2023-04-10T08:43:37.134Z,12.50
2023-04-10T08:44:39.818Z,12.68
2023-04-10T08:45:41.501Z,11.80
2023-04-10T08:46:44.868Z,12.50
2023-04-10T08:47:48.986Z,13.15
2023-04-10T08:49:04.118Z,12.10
2023-04-10T08:51:19.985Z,12.25
2023-04-10T08:52:25.646Z,11.48
2023-04-10T08:53:31.581Z,10.35
2023-04-10T08:54:35.758Z,11.38
2023-04-10T08:55:38.409Z,10.90
2023-04-10T08:56:42.811Z,11.40
2023-04-10T08:57:50.922Z,11.05
2023-04-10T09:00:22.115Z,12.25
2023-04-10T09:01:25.604Z,12.02
2023-04-10T09:02:28.797Z,11.13
2023-04-10T09:03:31.113Z,11.88
2023-04-10T09:04:33.513Z,12.57
2023-04-10T09:05:35.987Z,12.38
2023-04-10T09:06:37.567Z,12.15
2023-04-10T09:07:39.229Z,11.18
2023-04-10T09:08:40.696Z,11.27
2023-04-10T09:09:43.224Z,12.00
2023-04-10T09:10:44.687Z,11.63
2023-04-10T09:11:52.262Z,10.85
2023-04-10T09:12:53.741Z,11.55
2023-04-10T09:13:55.411Z,12.80
2023-04-10T09:14:57.235Z,12.23
2023-04-10T09:16:00.288Z,11.07
2023-04-10T09:17:16.207Z,11.43
2023-04-10T09:18:18.156Z,11.15
2023-04-10T09:19:33.730Z,11.38
2023-04-10T09:20:35.331Z,11.00
2023-04-10T09:21:36.854Z,10.50
2023-04-10T09:22:38.904Z,10.90
2023-04-10T09:23:42.222Z,10.57
2023-04-10T09:24:45.457Z,11.07
2023-04-10T09:25:47.855Z,10.25
2023-04-10T09:26:50.246Z,10.93
2023-04-10T09:28:08.723Z,12.07
2023-04-10T09:29:12.312Z,10.32
2023-04-10T09:30:34.316Z,10.57
2023-04-10T09:31:40.155Z,10.68
2023-04-10T09:32:44.304Z,10.40
2023-04-10T09:33:46.350Z,9.95
2023-04-10T09:34:57.144Z,10.80
2023-04-10T09:36:04.195Z,10.88
2023-04-10T09:37:06.102Z,9.98
2023-04-10T09:38:18.671Z,10.07
2023-04-10T09:39:20.302Z,10.57
2023-04-10T09:40:25.256Z,9.63
2023-04-10T09:41:26.922Z,9.63
2023-04-10T09:42:35.563Z,8.90
2023-04-10T09:43:38.985Z,8.98
2023-04-10T09:44:41.442Z,10.80
2023-04-10T09:45:55.069Z,9.40
2023-04-10T09:46:57.200Z,9.73
2023-04-10T09:48:07.805Z,10.27
2023-04-10T09:49:09.493Z,9.90
2023-04-10T09:50:10.929Z,9.95
2023-04-10T09:51:29.933Z,10.77
2023-04-10T09:52:33.570Z,10.38
2023-04-10T09:53:48.495Z,9.35
2023-04-10T09:54:49.955Z,10.25
2023-04-10T09:55:51.634Z,9.57
2023-04-10T09:56:54.473Z,9.57
2023-04-10T09:57:57.677Z,8.85
2023-04-10T09:59:02.225Z,9.77
2023-04-10T10:00:07.069Z,8.70
2023-04-10T10:01:08.772Z,9.45
2023-04-10T10:02:13.313Z,9.77
2023-04-10T10:03:16.676Z,9.20
2023-04-10T10:04:18.548Z,9.82
2023-04-10T10:05:49.557Z,10.32
2023-04-10T10:06:51.157Z,10.95
2023-04-10T10:07:52.604Z,8.02
2023-04-10T10:08:54.645Z,10.15
2023-04-10T10:09:57.917Z,8.10
2023-04-10T10:11:01.695Z,10.75
2023-04-10T10:12:06.925Z,8.93
2023-04-10T10:13:09.891Z,10.20
2023-04-10T10:14:17.377Z,9.43
2023-04-10T10:16:00.479Z,9.30
2023-04-10T10:17:16.803Z,10.18
2023-04-10T10:18:26.352Z,10.60
2023-04-10T10:19:45.306Z,9.30
2023-04-10T10:20:47.312Z,9.88
2023-04-10T10:21:49.172Z,9.02
2023-04-10T10:22:51.842Z,12.65
2023-04-10T10:23:55.679Z,9.30
2023-04-10T10:25:02.889Z,8.38
2023-04-10T10:26:08.764Z,8.88
2023-04-10T10:27:10.806Z,9.40
2023-04-10T10:28:17.526Z,8.70
2023-04-10T10:29:21.958Z,8.65
2023-04-10T10:30:29.981Z,8.30
2023-04-10T10:31:34.107Z,8.55
2023-04-10T10:32:36.644Z,8.40
2023-04-10T10:33:39.255Z,8.75
2023-04-10T10:34:41.500Z,8.32
2023-04-10T10:35:43.774Z,9.10
2023-04-10T10:36:45.520Z,9.98
2023-04-10T10:40:35.972Z,7.47
2023-04-10T10:56:29.056Z,6.60
2023-04-10T10:57:47.239Z,6.90
2023-04-10T10:58:51.163Z,7.10
2023-04-10T10:59:54.310Z,7.40
2023-04-10T11:00:58.969Z,6.97
2023-04-10T11:02:19.694Z,7.32
2023-04-10T11:03:22.640Z,7.28
2023-04-10T11:04:44.872Z,8.10
2023-04-10T11:05:54.192Z,6.90
2023-04-10T11:06:56.640Z,6.93
2023-04-10T11:08:01.966Z,7.07
2023-04-10T11:09:03.648Z,6.40
2023-04-10T11:10:05.572Z,6.80
2023-04-10T11:11:16.887Z,6.57
2023-04-10T11:12:23.808Z,6.82
2023-04-10T11:13:25.387Z,7.10
2023-04-10T11:14:27.496Z,7.85
2023-04-10T11:15:29.106Z,7.85
2023-04-10T11:16:31.542Z,7.38
2023-04-10T11:17:50.715Z,6.88
2023-04-10T11:19:02.695Z,7.65
2023-04-10T11:20:12.028Z,7.65
2023-04-10T11:21:16.133Z,7.03
2023-04-10T11:22:17.646Z,7.43
2023-04-10T11:23:20.457Z,6.57
2023-04-10T11:24:22.269Z,6.00
2023-04-10T11:25:47.785Z,6.47
2023-04-10T11:26:49.313Z,7.57
2023-04-10T11:27:52.818Z,7.30
2023-04-10T11:28:55.518Z,6.88
2023-04-10T11:29:58.320Z,6.63
2023-04-10T11:31:19.859Z,6.53
2023-04-10T11:32:21.507Z,6.10
2023-04-10T11:33:23.218Z,6.40
2023-04-10T11:34:25.415Z,6.93
2023-04-10T11:35:28.321Z,6.50
2023-04-10T11:37:32.174Z,7.57
2023-04-10T11:38:34.374Z,7.00
2023-04-10T11:39:35.874Z,6.35
2023-04-10T11:40:53.363Z,7.15
2023-04-10T11:41:58.434Z,6.18
2023-04-10T11:43:14.147Z,6.65
2023-04-10T11:44:27.128Z,6.43
2023-04-10T11:45:29.096Z,6.43
2023-04-10T11:46:31.740Z,6.43
2023-04-10T11:47:35.673Z,6.82
2023-04-10T11:48:37.609Z,6.93
2023-04-10T11:49:39.136Z,7.07
2023-04-10T11:50:41.385Z,6.30
2023-04-10T11:51:46.511Z,8.13
2023-04-10T11:52:51.288Z,6.70
2023-04-10T11:54:21.259Z,8.30
2023-04-10T11:55:39.217Z,7.10
2023-04-10T11:56:42.582Z,6.90
2023-04-10T11:57:45.668Z,6.57
2023-04-10T11:58:49.764Z,6.85
2023-04-10T11:59:51.649Z,6.20
2023-04-10T12:01:01.947Z,6.35
2023-04-10T12:02:09.270Z,6.35
2023-04-10T12:03:11.810Z,6.40
2023-04-10T12:04:18.886Z,6.57
2023-04-10T12:05:20.832Z,6.93
2023-04-10T12:06:22.538Z,6.68
2023-04-10T12:07:25.519Z,6.30
2023-04-10T12:08:31.700Z,5.97
2023-04-10T12:09:33.746Z,6.43
2023-04-10T12:10:46.981Z,6.90
2023-04-10T12:12:08.979Z,7.03
2023-04-10T12:13:25.189Z,6.28
2023-04-10T12:14:39.722Z,6.03
2023-04-10T12:15:41.273Z,6.85
2023-04-10T12:16:42.979Z,6.28
2023-04-10T12:17:45.055Z,6.43
2023-04-10T12:18:46.838Z,6.35
2023-04-10T12:19:48.541Z,5.82
2023-04-10T12:20:51.877Z,6.80
2023-04-10T12:21:53.915Z,6.53
2023-04-10T12:22:56.831Z,6.75
2023-04-10T12:24:59.744Z,6.65
2023-04-10T12:26:28.013Z,6.57
2023-04-10T12:27:29.461Z,6.32
2023-04-10T12:28:30.947Z,6.85
2023-04-10T12:29:32.427Z,6.00
2023-04-10T12:30:34.083Z,6.20
2023-04-10T12:31:37.331Z,7.05
2023-04-10T12:32:39.660Z,6.65
2023-04-10T12:33:45.399Z,6.20
2023-04-10T12:34:51.075Z,6.50
2023-04-10T12:35:55.680Z,6.60
2023-04-10T12:36:59.738Z,6.47
2023-04-10T12:38:01.383Z,7.35
2023-04-10T12:39:04.420Z,6.15
2023-04-10T12:40:09.047Z,5.80
2023-04-10T12:41:11.738Z,6.47
2023-04-10T12:42:20.976Z,6.15
2023-04-10T12:43:33.866Z,5.78
2023-04-10T12:44:35.815Z,6.10
2023-04-10T12:45:45.030Z,6.38
2023-04-10T12:46:46.727Z,5.75
2023-04-10T12:47:52.140Z,4.95
2023-04-10T12:48:54.696Z,6.20
2023-04-10T12:50:10.655Z,5.75
2023-04-10T12:51:12.341Z,6.40
2023-04-10T12:52:22.890Z,5.55
2023-04-10T12:53:25.513Z,5.70
2023-04-10T12:54:32.020Z,6.22
2023-04-10T12:55:33.830Z,5.40
2023-04-10T12:56:43.606Z,5.63
2023-04-10T12:57:46.596Z,6.13
2023-04-10T12:58:48.040Z,5.82
2023-04-10T12:59:50.139Z,5.68
2023-04-10T13:01:00.450Z,5.60
2023-04-10T13:02:02.028Z,5.85
2023-04-10T13:03:03.985Z,5.68
2023-04-10T13:04:06.554Z,6.43
2023-04-10T13:05:11.481Z,6.22
2023-04-10T13:06:13.255Z,6.55
2023-04-10T13:07:17.981Z,5.78
2023-04-10T13:08:19.949Z,6.30
2023-04-10T13:09:22.444Z,6.55
2023-04-10T13:10:31.188Z,6.45
2023-04-10T13:11:32.637Z,6.18
2023-04-10T13:12:35.281Z,5.97
2023-04-10T13:13:37.148Z,5.97
2023-04-10T13:14:38.660Z,5.93
2023-04-10T13:15:40.953Z,6.07
2023-04-10T13:16:42.538Z,6.28
2023-04-10T13:17:44.079Z,6.35
2023-04-10T13:18:45.759Z,6.45
2023-04-10T13:19:47.245Z,5.97
2023-04-10T13:20:52.392Z,6.15
2023-04-10T13:21:53.993Z,5.70
2023-04-10T13:22:57.413Z,6.28
2023-04-10T13:24:05.126Z,5.70
2023-04-10T13:25:06.972Z,6.18
2023-04-10T13:26:08.449Z,6.50
2023-04-10T13:27:10.811Z,6.95
2023-04-10T13:28:12.305Z,5.88
2023-04-10T13:29:15.865Z,6.30
2023-04-10T13:30:17.434Z,5.65
2023-04-10T13:31:18.954Z,6.38
2023-04-10T13:32:21.188Z,6.35
2023-04-10T13:33:25.028Z,5.85
2023-04-10T13:34:26.581Z,5.47
2023-04-10T13:35:28.084Z,6.07
2023-04-10T13:36:29.957Z,6.15
2023-04-10T13:37:32.310Z,5.70
2023-04-10T13:38:34.072Z,6.63
2023-04-10T13:39:35.568Z,5.63
2023-04-10T13:40:37.241Z,5.85
2023-04-10T13:41:38.698Z,5.93
2023-04-10T13:42:42.442Z,5.85
2023-04-10T13:43:44.164Z,6.00
2023-04-10T13:44:45.766Z,5.22
2023-04-10T13:45:47.269Z,5.93
2023-04-10T13:46:48.753Z,5.65
2023-04-10T13:47:50.634Z,5.72
2023-04-10T13:48:52.320Z,5.53
2023-04-10T13:50:24.683Z,6.03
2023-04-10T13:51:26.571Z,5.70
2023-04-10T13:52:34.554Z,6.15
2023-04-10T13:54:23.404Z,5.60
2023-04-10T13:55:22.780Z,6.10
2023-04-10T13:56:24.326Z,5.13
2023-04-10T13:57:25.906Z,5.60
2023-04-10T13:58:31.680Z,5.97
2023-04-10T13:59:33.482Z,5.82
2023-04-10T14:00:35.150Z,5.40
2023-04-10T14:01:36.738Z,6.50
2023-04-10T14:02:38.315Z,5.95
2023-04-10T14:03:39.888Z,5.72
2023-04-10T14:04:42.642Z,5.78
2023-04-10T14:05:45.640Z,5.30
2023-04-10T14:06:48.012Z,5.88
2023-04-10T14:07:51.980Z,5.43
2023-04-10T14:08:56.704Z,6.15
2023-04-10T14:10:02.162Z,5.10
2023-04-10T14:11:03.691Z,5.63
2023-04-10T14:12:12.012Z,5.57
2023-04-10T14:13:13.489Z,5.80
2023-04-10T14:14:17.313Z,5.13
2023-04-10T14:15:23.488Z,5.55
2023-04-10T14:16:25.040Z,5.35
2023-04-10T14:17:29.630Z,6.03
2023-04-10T14:18:31.221Z,5.60
2023-04-10T14:19:33.990Z,5.10
2023-04-10T14:20:35.530Z,5.47
2023-04-10T14:21:37.456Z,4.88